Terminal Aerodrome Forecast
Issued by NWS Charleston, WV

Current Version | Previous Version | Graphics & Text | Print | Product List | Glossary On
Versions: 1 2 3 4 5 6 7 8 9 10 11 12 13 14 15 16 17 18 19 20
000
FTUS41 KRLX 261500 AAA
TAFPKB
TAF AMD
KPKB 261501Z 2615/2712 02003KT 1 1/2SM -SN BR OVC024
      TEMPO 2615/2616 5SM -SHSN
     FM261600 VRB03KT P6SM BKN025
     FM262000 00000KT P6SM BKN035=

USA.gov is the U.S. government's official web portal to all federal, state and local government web resources and services.